Time;durP1;ratioP1;P1;durP2;ratioP2;P2;SDS_P1;SDS_P2;PMS_P1;PMS_P2;Temp;Humidity;BMP_temperature;BMP_pressure;BME280_temperature;BME280_humidity;BME280_pressure;Samples;Min_cycle;Max_cycle;Signal;HPM_P1;HPM_P2
2023/05/17 00:00:50;;;;;;;20.45;5.50;;;9.20;99.90;;;;;;5014524;28;20045;-38
2023/05/17 00:03:16;;;;;;;18.70;5.07;;;9.10;99.90;;;;;;4996209;28;20049;-38
2023/05/17 00:05:42;;;;;;;20.50;5.70;;;9.00;99.90;;;;;;5013731;28;20050;-36
2023/05/17 00:08:07;;;;;;;22.42;5.53;;;9.00;99.90;;;;;;5013401;28;20510;-36
2023/05/17 00:10:33;;;;;;;19.23;4.97;;;9.00;99.90;;;;;;4995716;28;20104;-39
2023/05/17 00:12:59;;;;;;;17.95;4.32;;;8.90;99.90;;;;;;5012947;28;20049;-39
2023/05/17 00:15:24;;;;;;;20.95;4.03;;;8.80;99.90;;;;;;5013214;28;20557;-42
2023/05/17 00:17:50;;;;;;;19.67;5.75;;;8.70;99.90;;;;;;5013536;28;20049;-42
2023/05/17 00:20:16;;;;;;;18.05;4.40;;;8.60;99.90;;;;;;4996635;28;20057;-42
2023/05/17 00:22:44;;;;;;;18.42;4.45;;;8.60;99.90;;;;;;5013820;28;20111;-36
2023/05/17 00:25:09;;;;;;;22.50;5.63;;;8.60;99.90;;;;;;5013574;28;20411;-37
2023/05/17 00:27:35;;;;;;;22.25;4.95;;;8.50;99.90;;;;;;5013153;28;20064;-38
2023/05/17 00:30:01;;;;;;;22.08;4.90;;;8.40;99.90;;;;;;5013863;28;20049;-39
2023/05/17 00:32:26;;;;;;;20.33;4.78;;;8.40;99.90;;;;;;5012677;28;20055;-39
2023/05/17 00:34:52;;;;;;;20.90;4.55;;;8.40;99.90;;;;;;5012194;28;20791;-38
2023/05/17 00:37:18;;;;;;;15.90;5.53;;;8.30;99.90;;;;;;5012906;28;20567;-38
2023/05/17 00:39:43;;;;;;;21.88;5.03;;;8.30;99.90;;;;;;5014339;28;20471;-41
2023/05/17 00:42:10;;;;;;;19.35;3.95;;;8.30;99.90;;;;;;5014171;28;20507;-35
2023/05/17 00:44:36;;;;;;;21.63;5.05;;;8.30;99.90;;;;;;5012796;28;20053;-39
2023/05/17 00:47:02;;;;;;;20.67;4.57;;;8.20;99.90;;;;;;5012506;28;20519;-39
2023/05/17 00:49:28;;;;;;;20.58;4.97;;;8.20;99.90;;;;;;4995291;28;20046;-38
2023/05/17 00:51:54;;;;;;;19.20;4.18;;;8.20;99.90;;;;;;5013467;28;20479;-35
2023/05/17 00:54:21;;;;;;;20.08;5.50;;;8.20;99.90;;;;;;5006184;28;20053;-37
2023/05/17 00:56:47;;;;;;;18.65;5.03;;;8.10;99.90;;;;;;5011483;28;20060;-49
2023/05/17 00:59:14;;;;;;;23.25;4.75;;;8.10;99.90;;;;;;5013645;28;20102;-39
2023/05/17 01:01:43;;;;;;;28.92;6.28;;;8.00;99.90;;;;;;4995069;28;20045;-38
2023/05/17 01:04:09;;;;;;;22.67;4.82;;;8.00;99.90;;;;;;5012408;28;20086;-36
2023/05/17 01:06:36;;;;;;;19.52;4.50;;;8.00;99.90;;;;;;5012060;28;20148;-40
2023/05/17 01:09:02;;;;;;;29.27;4.93;;;8.10;99.90;;;;;;4995220;28;20399;-42
2023/05/17 01:11:47;;;;;;;28.55;5.75;;;8.10;99.90;;;;;;4994752;28;20038;-38
2023/05/17 01:14:22;;;;;;;19.38;5.05;;;8.20;99.90;;;;;;5012602;28;20140;-41
2023/05/17 01:16:55;;;;;;;29.05;4.72;;;8.20;99.90;;;;;;5012145;28;20418;-41
2023/05/17 01:20:05;;;;;;;26.98;5.35;;;8.20;99.90;;;;;;5013143;28;20057;-40
2023/05/17 01:23:07;;;;;;;18.45;4.57;;;8.20;99.90;;;;;;5032792;28;20057;-35
2023/05/17 01:26:07;;;;;;;16.27;4.53;;;8.20;99.90;;;;;;5041726;28;20052;-43
2023/05/17 01:28:36;;;;;;;20.33;4.22;;;8.10;99.90;;;;;;5040676;28;20622;-43
2023/05/17 01:31:02;;;;;;;17.05;4.85;;;8.10;99.90;;;;;;5048788;28;20078;-35
2023/05/17 01:33:30;;;;;;;24.85;4.50;;;8.10;99.90;;;;;;5032610;28;20064;-41
2023/05/17 01:35:55;;;;;;;20.80;4.13;;;8.10;99.90;;;;;;5046634;28;20131;-38
2023/05/17 01:38:21;;;;;;;17.60;4.53;;;8.10;99.90;;;;;;5052115;28;20048;-42
2023/05/17 01:40:55;;;;;;;21.45;5.20;;;8.10;99.90;;;;;;5018696;28;20064;-36
2023/05/17 01:43:32;;;;;;;22.45;4.65;;;8.10;99.90;;;;;;5042638;28;20080;-41
2023/05/17 01:46:30;;;;;;;18.02;4.57;;;8.10;99.90;;;;;;5045191;28;20515;-40
2023/05/17 01:49:09;;;;;;;20.63;4.13;;;8.10;99.90;;;;;;4956036;28;20078;-39
2023/05/17 01:51:48;;;;;;;21.05;4.75;;;8.10;99.90;;;;;;4972930;28;20061;-37
2023/05/17 01:54:19;;;;;;;25.55;4.75;;;8.10;99.90;;;;;;4972429;28;20062;-41
2023/05/17 01:56:50;;;;;;;23.58;4.32;;;8.20;99.90;;;;;;4992358;28;20057;-40
2023/05/17 01:59:23;;;;;;;20.85;4.47;;;8.30;99.90;;;;;;4931121;28;20066;-38
2023/05/17 02:01:54;;;;;;;;;;;8.30;99.90;;;;;;4932126;28;20978;-35
2023/05/17 02:04:20;;;;;;;18.85;4.43;;;8.40;99.90;;;;;;4931010;28;20025;-38
2023/05/17 02:06:45;;;;;;;21.35;5.00;;;8.40;99.90;;;;;;4927323;28;20644;-40
2023/05/17 02:09:11;;;;;;;23.55;5.07;;;8.40;99.90;;;;;;4921474;28;20615;-41
2023/05/17 02:11:37;;;;;;;21.13;4.80;;;8.50;99.90;;;;;;4930565;28;20095;-36
2023/05/17 02:14:02;;;;;;;18.00;4.38;;;8.50;99.90;;;;;;4930694;28;20937;-36
2023/05/17 02:16:28;;;;;;;20.77;4.10;;;8.40;99.90;;;;;;4929660;28;20051;-38
2023/05/17 02:18:54;;;;;;;22.83;4.63;;;8.40;99.90;;;;;;4915380;29;20478;-39
2023/05/17 02:21:19;;;;;;;20.95;4.07;;;8.30;99.90;;;;;;4931431;29;20043;-38
2023/05/17 02:23:45;;;;;;;20.52;4.88;;;8.20;99.90;;;;;;4922628;28;20164;-42
2023/05/17 02:26:10;;;;;;;18.73;4.22;;;8.20;99.90;;;;;;4994865;28;20536;-39
2023/05/17 02:28:36;;;;;;;23.90;4.65;;;8.10;99.90;;;;;;5011568;28;20080;-36
2023/05/17 02:31:02;;;;;;;22.38;5.25;;;8.10;99.90;;;;;;4994048;28;20041;-39
2023/05/17 02:33:27;;;;;;;17.55;4.22;;;8.10;99.90;;;;;;5011422;28;20462;-36
2023/05/17 02:35:53;;;;;;;19.13;4.15;;;8.10;99.90;;;;;;5010595;28;20053;-40
2023/05/17 02:38:19;;;;;;;22.38;4.10;;;8.10;99.90;;;;;;5012500;28;20076;-36
2023/05/17 02:40:44;;;;;;;17.33;4.10;;;8.10;99.90;;;;;;5011895;28;20065;-42
2023/05/17 02:43:10;;;;;;;21.30;5.75;;;8.10;99.90;;;;;;4994432;28;20049;-38
2023/05/17 02:45:36;;;;;;;22.55;4.38;;;8.10;99.90;;;;;;5010819;28;20037;-40
2023/05/17 02:48:01;;;;;;;21.15;5.05;;;8.10;99.90;;;;;;5027736;28;20047;-37
2023/05/17 02:50:27;;;;;;;22.67;4.45;;;8.00;99.90;;;;;;5033486;27;20477;-38
2023/05/17 02:52:52;;;;;;;20.38;4.20;;;7.90;99.90;;;;;;4994362;28;20118;-40
2023/05/17 02:55:18;;;;;;;17.02;4.07;;;7.90;99.90;;;;;;5002465;28;20200;-35
2023/05/17 02:57:45;;;;;;;18.85;4.13;;;7.80;99.90;;;;;;5011517;28;20133;-40
2023/05/17 03:00:11;;;;;;;22.33;3.95;;;7.80;99.90;;;;;;4994162;28;20685;-37
2023/05/17 03:02:36;;;;;;;17.58;3.30;;;7.70;99.90;;;;;;5011736;28;20330;-43
2023/05/17 03:05:03;;;;;;;18.45;4.15;;;7.60;99.90;;;;;;5011426;28;20049;-40
2023/05/17 03:07:29;;;;;;;14.95;3.80;;;7.60;99.90;;;;;;5011827;28;20121;-36
2023/05/17 03:09:55;;;;;;;18.05;3.88;;;7.60;99.90;;;;;;5011782;28;20100;-40
2023/05/17 03:12:20;;;;;;;20.65;4.10;;;7.60;99.90;;;;;;5011845;28;20188;-34
2023/05/17 03:14:46;;;;;;;20.40;4.13;;;7.50;99.90;;;;;;5010483;28;20049;-39
2023/05/17 03:17:12;;;;;;;17.90;3.60;;;7.50;99.90;;;;;;5011273;28;20045;-38
2023/05/17 03:19:37;;;;;;;17.35;3.92;;;7.50;99.90;;;;;;5011750;28;20057;-37
2023/05/17 03:22:03;;;;;;;19.67;5.13;;;7.60;99.90;;;;;;5011965;28;20736;-38
2023/05/17 03:24:29;;;;;;;10.95;3.30;;;7.70;99.90;;;;;;5011353;28;20085;-35
2023/05/17 03:26:54;;;;;;;15.10;3.80;;;7.70;99.90;;;;;;5011562;28;20128;-37
2023/05/17 03:29:20;;;;;;;15.15;3.70;;;7.80;99.90;;;;;;5011579;28;20038;-35
2023/05/17 03:31:46;;;;;;;16.25;3.17;;;7.90;99.90;;;;;;5011406;28;20045;-41
2023/05/17 03:34:11;;;;;;;18.35;4.03;;;7.90;99.90;;;;;;4994084;28;20770;-41
2023/05/17 03:36:38;;;;;;;14.70;4.20;;;8.00;99.90;;;;;;5010861;28;20834;-39
2023/05/17 03:39:04;;;;;;;15.85;3.25;;;8.00;99.90;;;;;;5011227;28;20057;-38
2023/05/17 03:41:30;;;;;;;13.32;3.25;;;8.00;99.90;;;;;;5011952;28;20073;-41
2023/05/17 03:43:56;;;;;;;13.60;3.50;;;8.00;99.90;;;;;;4992609;28;20519;-36
2023/05/17 03:46:22;;;;;;;19.50;4.45;;;8.00;99.90;;;;;;5010192;28;20037;-43
2023/05/17 03:48:48;;;;;;;18.80;3.70;;;7.90;99.90;;;;;;4994802;28;20056;-44
2023/05/17 03:51:14;;;;;;;12.40;3.10;;;7.90;99.90;;;;;;5014955;28;20131;-39
2023/05/17 03:53:42;;;;;;;16.52;3.80;;;7.80;99.90;;;;;;5012798;28;20050;-35
2023/05/17 03:56:08;;;;;;;19.65;3.78;;;7.80;99.90;;;;;;5006769;28;20045;-40
2023/05/17 03:58:34;;;;;;;14.00;3.92;;;7.80;99.90;;;;;;5014448;28;20060;-35
2023/05/17 04:01:01;;;;;;;14.10;3.72;;;7.90;99.90;;;;;;5014706;28;20042;-38
2023/05/17 04:03:27;;;;;;;15.52;3.88;;;7.90;99.90;;;;;;4996630;28;20166;-37
2023/05/17 04:05:59;;;;;;;15.77;3.33;;;7.90;99.90;;;;;;5012940;28;20053;-37
2023/05/17 04:08:25;;;;;;;12.23;2.72;;;8.00;99.90;;;;;;5001716;28;20053;-39
2023/05/17 04:10:50;;;;;;;16.05;3.25;;;8.00;99.90;;;;;;5014936;28;20038;-35
2023/05/17 04:13:16;;;;;;;27.13;5.50;;;8.00;99.90;;;;;;5014734;28;20041;-41
2023/05/17 04:15:41;;;;;;;13.30;3.28;;;8.00;99.90;;;;;;5013238;28;20053;-35
2023/05/17 04:18:07;;;;;;;14.05;3.22;;;8.10;99.90;;;;;;5013748;28;20042;-37
2023/05/17 04:20:33;;;;;;;12.80;3.00;;;8.10;99.90;;;;;;5013322;28;20306;-39
2023/05/17 04:22:58;;;;;;;14.05;3.25;;;8.20;99.90;;;;;;4995781;28;20057;-38
2023/05/17 04:25:24;;;;;;;12.25;2.72;;;8.20;99.90;;;;;;5013312;28;20419;-41
2023/05/17 04:27:50;;;;;;;15.90;3.30;;;8.30;99.90;;;;;;5013965;28;20045;-36
2023/05/17 04:30:16;;;;;;;8.95;2.75;;;8.40;99.90;;;;;;5014672;28;20052;-42
2023/05/17 04:32:42;;;;;;;13.30;4.35;;;8.50;99.90;;;;;;5014789;28;20640;-37
2023/05/17 04:35:08;;;;;;;13.18;3.25;;;8.60;99.90;;;;;;5013327;28;20048;-39
2023/05/17 04:37:33;;;;;;;12.68;2.30;;;8.80;99.90;;;;;;5013054;28;20444;-39
2023/05/17 04:39:59;;;;;;;18.63;3.50;;;8.90;99.90;;;;;;5013368;28;20056;-38
2023/05/17 04:42:25;;;;;;;14.40;2.83;;;9.00;99.90;;;;;;5013224;28;20128;-41
2023/05/17 04:44:51;;;;;;;13.27;2.70;;;9.10;99.90;;;;;;5012998;28;20057;-34
2023/05/17 04:47:17;;;;;;;11.27;3.05;;;9.10;99.90;;;;;;5012838;28;20060;-35
2023/05/17 04:49:43;;;;;;;10.63;2.30;;;9.20;99.90;;;;;;5013927;28;20474;-39
2023/05/17 04:52:09;;;;;;;8.85;2.35;;;9.20;99.90;;;;;;5013729;28;20465;-38
2023/05/17 04:54:35;;;;;;;12.18;1.92;;;9.20;99.90;;;;;;5003977;28;20529;-39
2023/05/17 04:57:02;;;;;;;13.57;2.13;;;9.10;99.90;;;;;;5012737;28;21071;-39
2023/05/17 04:59:28;;;;;;;9.73;2.05;;;9.20;99.90;;;;;;5012973;28;20545;-36
2023/05/17 05:01:53;;;;;;;4.90;1.70;;;9.20;99.90;;;;;;5013472;28;20049;-37
2023/05/17 05:04:19;;;;;;;8.80;2.05;;;9.10;99.90;;;;;;5013250;28;20484;-37
2023/05/17 05:06:44;;;;;;;7.20;2.03;;;9.20;99.90;;;;;;5012899;28;20052;-40
2023/05/17 05:09:10;;;;;;;13.85;2.55;;;9.30;99.90;;;;;;5013737;28;20404;-37
2023/05/17 05:11:36;;;;;;;12.95;3.03;;;9.40;99.90;;;;;;5013298;28;20323;-35
2023/05/17 05:14:01;;;;;;;10.23;1.80;;;9.50;99.90;;;;;;4994837;28;20419;-39
2023/05/17 05:16:27;;;;;;;10.25;2.28;;;9.60;99.90;;;;;;5011823;28;20461;-36
2023/05/17 05:18:52;;;;;;;10.50;2.75;;;9.60;99.90;;;;;;4996256;28;20705;-43
2023/05/17 05:21:18;;;;;;;11.45;2.67;;;9.90;99.90;;;;;;4995453;28;20049;-39
2023/05/17 05:23:44;;;;;;;10.07;2.83;;;10.40;99.90;;;;;;5013096;28;20056;-38
2023/05/17 05:26:09;;;;;;;10.93;2.20;;;10.70;99.90;;;;;;4994860;28;20051;-40
2023/05/17 05:28:36;;;;;;;9.85;2.17;;;11.40;99.90;;;;;;5012360;28;20058;-39
2023/05/17 05:31:01;;;;;;;13.60;3.30;;;11.60;99.90;;;;;;5013301;28;20115;-39
2023/05/17 05:33:27;;;;;;;16.13;2.92;;;11.60;99.90;;;;;;5013251;28;20136;-38
2023/05/17 05:35:52;;;;;;;9.20;2.38;;;11.50;99.90;;;;;;5011369;28;20214;-40
2023/05/17 05:38:18;;;;;;;10.70;2.47;;;11.60;99.90;;;;;;4994763;28;20471;-42
2023/05/17 05:40:47;;;;;;;12.13;2.40;;;11.60;99.90;;;;;;5012515;28;20136;-41
2023/05/17 05:43:13;;;;;;;11.02;2.88;;;11.90;99.90;;;;;;5012712;28;20053;-37
2023/05/17 05:45:45;;;;;;;11.00;2.10;;;12.20;99.90;;;;;;5011133;28;20053;-38
2023/05/17 05:48:12;;;;;;;7.68;1.98;;;12.30;99.90;;;;;;5012598;28;20049;-35
2023/05/17 05:50:38;;;;;;;9.60;2.33;;;12.30;99.90;;;;;;5012054;28;20045;-36
2023/05/17 05:53:05;;;;;;;7.05;1.88;;;12.30;99.90;;;;;;4995068;28;20053;-38
2023/05/17 05:55:30;;;;;;;9.30;2.35;;;12.30;99.90;;;;;;5001824;28;20053;-37
2023/05/17 05:57:56;;;;;;;9.93;2.63;;;12.30;99.90;;;;;;5012605;28;20076;-35
2023/05/17 06:00:22;;;;;;;11.68;2.20;;;12.20;99.90;;;;;;4994518;28;20091;-45
2023/05/17 06:02:47;;;;;;;12.18;2.40;;;12.00;99.90;;;;;;4995224;28;20190;-37
2023/05/17 06:05:13;;;;;;;10.40;2.45;;;11.90;99.90;;;;;;4994355;28;20512;-40
2023/05/17 06:07:39;;;;;;;12.63;2.47;;;11.80;99.90;;;;;;4994228;28;20087;-42
2023/05/17 06:10:05;;;;;;;14.23;2.65;;;11.90;99.90;;;;;;5011872;28;20540;-39
2023/05/17 06:12:30;;;;;;;10.30;2.28;;;11.90;99.90;;;;;;5011693;28;20050;-35
2023/05/17 06:14:56;;;;;;;13.52;2.88;;;11.90;99.90;;;;;;5011812;28;20389;-35
2023/05/17 06:17:22;;;;;;;15.50;2.88;;;11.90;99.90;;;;;;4994390;28;20167;-42
2023/05/17 06:19:51;;;;;;;7.93;2.40;;;11.90;99.90;;;;;;5012667;28;20198;-40
2023/05/17 06:22:17;;;;;;;7.93;2.17;;;12.10;99.90;;;;;;5012807;28;20060;-38
2023/05/17 06:24:42;;;;;;;10.88;2.72;;;12.10;99.90;;;;;;4993612;28;20213;-39
2023/05/17 06:27:08;;;;;;;11.98;2.40;;;11.80;99.90;;;;;;5012230;28;20074;-40
2023/05/17 06:29:34;;;;;;;11.32;2.30;;;11.60;99.90;;;;;;5012008;28;20056;-40
2023/05/17 06:31:59;;;;;;;15.27;2.75;;;11.50;99.90;;;;;;5012716;28;20053;-36
2023/05/17 06:34:25;;;;;;;7.80;2.00;;;11.50;99.90;;;;;;5011715;28;20053;-38
2023/05/17 06:36:51;;;;;;;13.75;2.92;;;11.40;99.90;;;;;;5012446;28;20326;-34
2023/05/17 06:39:17;;;;;;;9.85;2.78;;;11.60;99.90;;;;;;4977719;28;20565;-38
2023/05/17 06:41:43;;;;;;;15.60;3.42;;;11.70;99.90;;;;;;4994396;28;20407;-38
2023/05/17 06:44:08;;;;;;;14.27;3.72;;;12.10;99.90;;;;;;4977357;28;20061;-38
2023/05/17 06:46:34;;;;;;;21.50;3.90;;;12.70;99.90;;;;;;4993212;28;20106;-40
2023/05/17 06:49:00;;;;;;;12.90;3.65;;;13.00;99.90;;;;;;4992415;28;20050;-43
2023/05/17 06:51:25;;;;;;;14.77;3.40;;;13.60;99.90;;;;;;5010659;28;20053;-39
2023/05/17 06:53:51;;;;;;;17.30;4.22;;;14.20;99.90;;;;;;5008033;28;20478;-35
2023/05/17 06:56:17;;;;;;;15.88;3.10;;;14.00;99.90;;;;;;4978332;28;20060;-38
2023/05/17 06:58:42;;;;;;;13.73;3.28;;;13.60;99.90;;;;;;5011945;28;20053;-39
2023/05/17 07:01:08;;;;;;;16.50;3.25;;;13.50;99.90;;;;;;5011072;28;20053;-36
2023/05/17 07:03:34;;;;;;;10.57;2.55;;;13.40;99.90;;;;;;4991538;28;20064;-39
2023/05/17 07:06:00;;;;;;;13.52;2.92;;;13.40;99.90;;;;;;5011256;28;20392;-43
2023/05/17 07:08:26;;;;;;;15.02;3.25;;;14.40;99.90;;;;;;5009814;28;20380;-35
2023/05/17 07:10:52;;;;;;;15.20;3.70;;;15.20;99.90;;;;;;5010026;28;20604;-37
2023/05/17 07:13:18;;;;;;;17.73;3.10;;;15.30;99.90;;;;;;5010860;28;20124;-41
2023/05/17 07:15:44;;;;;;;15.30;3.97;;;14.20;99.90;;;;;;5010611;28;20083;-43
2023/05/17 07:18:10;;;;;;;13.43;2.92;;;14.00;99.90;;;;;;5003371;28;20048;-38
2023/05/17 07:20:35;;;;;;;14.75;3.03;;;13.90;99.90;;;;;;4991475;28;20042;-44
2023/05/17 07:23:02;;;;;;;18.52;3.90;;;14.00;99.90;;;;;;4975305;28;20502;-35
2023/05/17 07:25:28;;;;;;;14.27;3.13;;;13.50;99.90;;;;;;4982063;28;20507;-37
2023/05/17 07:27:54;;;;;;;12.38;3.10;;;13.60;99.90;;;;;;4976141;28;20084;-41
2023/05/17 07:30:19;;;;;;;12.68;2.67;;;13.70;99.90;;;;;;5001606;28;20060;-36
2023/05/17 07:32:45;;;;;;;17.33;3.67;;;13.40;99.90;;;;;;5011273;28;20053;-45
2023/05/17 07:35:11;;;;;;;14.93;3.53;;;13.60;99.90;;;;;;4994060;28;20046;-37
2023/05/17 07:37:36;;;;;;;11.00;3.03;;;13.50;99.90;;;;;;5013375;28;20073;-37
2023/05/17 07:40:04;;;;;;;10.77;2.70;;;13.70;99.90;;;;;;5012567;28;20053;-38
2023/05/17 07:42:30;;;;;;;20.70;3.28;;;14.40;99.90;;;;;;5008072;28;20156;-45
2023/05/17 07:44:55;;;;;;;12.20;2.90;;;15.00;99.00;;;;;;4987820;28;20198;-39
2023/05/17 07:47:21;;;;;;;14.85;3.10;;;14.90;98.00;;;;;;5013961;28;20121;-38
2023/05/17 07:49:47;;;;;;;8.32;2.70;;;15.20;98.80;;;;;;5014117;28;20120;-39
2023/05/17 07:52:13;;;;;;;15.32;2.53;;;15.40;97.60;;;;;;5013404;28;20504;-39
2023/05/17 07:54:39;;;;;;;11.73;2.63;;;15.00;97.40;;;;;;5012907;28;20058;-35
2023/05/17 07:57:04;;;;;;;12.60;3.03;;;15.30;99.30;;;;;;5014417;28;20489;-36
2023/05/17 07:59:30;;;;;;;11.07;3.00;;;15.20;99.10;;;;;;5014609;28;20049;-39
2023/05/17 08:01:56;;;;;;;12.68;3.53;;;15.20;97.20;;;;;;5013568;28;20056;-36
2023/05/17 08:04:23;;;;;;;10.55;3.13;;;15.10;97.50;;;;;;5013565;28;20126;-37
2023/05/17 08:06:48;;;;;;;13.38;3.33;;;15.10;97.60;;;;;;5013880;28;20056;-35
2023/05/17 08:09:15;;;;;;;9.48;3.20;;;15.00;98.60;;;;;;5014157;28;20105;-38
2023/05/17 08:11:47;;;;;;;10.98;3.05;;;14.80;98.40;;;;;;4999680;28;20496;-36
2023/05/17 08:14:16;;;;;;;12.27;3.13;;;14.70;99.10;;;;;;4987822;28;20508;-41
2023/05/17 08:16:44;;;;;;;12.45;3.60;;;15.20;99.50;;;;;;5003171;28;20307;-37
2023/05/17 08:19:15;;;;;;;13.75;3.38;;;15.10;99.40;;;;;;4982711;28;20073;-36
2023/05/17 08:21:41;;;;;;;10.82;3.13;;;14.90;98.20;;;;;;4995046;28;20050;-37
2023/05/17 08:24:08;;;;;;;11.77;3.58;;;14.90;98.90;;;;;;5011825;28;20125;-41
2023/05/17 08:26:33;;;;;;;15.80;4.13;;;14.80;98.70;;;;;;5012338;28;20233;-35
2023/05/17 08:29:01;;;;;;;12.05;2.75;;;14.60;99.70;;;;;;5013412;28;20495;-39
2023/05/17 08:31:27;;;;;;;14.75;3.47;;;14.50;99.10;;;;;;5013235;28;20077;-40
2023/05/17 08:33:53;;;;;;;12.18;3.58;;;14.40;99.90;;;;;;5011559;28;20045;-37
2023/05/17 08:36:19;;;;;;;16.45;3.58;;;14.40;99.90;;;;;;5013959;28;20525;-35
2023/05/17 08:38:45;;;;;;;12.88;3.78;;;14.20;99.90;;;;;;4995951;28;20049;-39
2023/05/17 08:41:12;;;;;;;13.32;3.25;;;14.00;99.90;;;;;;5013864;28;20465;-41
2023/05/17 08:43:38;;;;;;;10.60;3.08;;;14.10;99.90;;;;;;5006812;28;20038;-38
2023/05/17 08:46:04;;;;;;;13.63;4.20;;;14.20;99.90;;;;;;5012775;28;20071;-38
2023/05/17 08:48:30;;;;;;;15.48;3.45;;;14.20;99.90;;;;;;5011958;28;20144;-35
2023/05/17 08:51:00;;;;;;;18.60;3.88;;;14.20;99.90;;;;;;5013018;28;20082;-37
2023/05/17 08:53:26;;;;;;;13.43;3.47;;;14.20;99.90;;;;;;4993864;28;20549;-38
2023/05/17 08:56:01;;;;;;;18.42;4.20;;;14.30;99.90;;;;;;5013100;28;20093;-43
2023/05/17 08:58:30;;;;;;;15.80;3.80;;;14.60;99.90;;;;;;5011886;28;20042;-41
2023/05/17 09:00:58;;;;;;;15.85;3.90;;;14.80;99.90;;;;;;4994975;28;20049;-38
2023/05/17 09:03:25;;;;;;;13.80;3.92;;;14.80;99.90;;;;;;5012127;28;20053;-37
2023/05/17 09:05:52;;;;;;;13.70;3.72;;;14.60;99.90;;;;;;5001507;28;20053;-42
2023/05/17 09:08:21;;;;;;;18.15;4.00;;;14.20;99.90;;;;;;4987810;28;20053;-41
2023/05/17 09:10:48;;;;;;;15.98;3.92;;;14.30;99.90;;;;;;5008549;28;20057;-39
2023/05/17 09:13:13;;;;;;;15.57;4.35;;;14.40;99.90;;;;;;5000384;27;20085;-43
2023/05/17 09:15:43;;;;;;;19.02;3.92;;;14.40;99.90;;;;;;5015754;27;20516;-44
2023/05/17 09:18:13;;;;;;;15.88;3.92;;;14.30;99.90;;;;;;5021704;27;21004;-40
2023/05/17 09:20:39;;;;;;;14.13;3.33;;;14.60;99.90;;;;;;5023569;27;20041;-35
2023/05/17 09:23:12;;;;;;;15.05;3.53;;;14.70;99.90;;;;;;5016607;28;20462;-41
2023/05/17 09:25:45;;;;;;;13.45;2.88;;;14.90;99.90;;;;;;5013069;28;20045;-39
2023/05/17 09:28:11;;;;;;;11.43;3.25;;;15.10;99.90;;;;;;5013021;28;20077;-38
2023/05/17 09:30:38;;;;;;;14.80;3.15;;;15.30;99.80;;;;;;4986728;28;20494;-43
2023/05/17 09:33:09;;;;;;;15.45;3.58;;;15.40;99.90;;;;;;5010924;28;20045;-35
2023/05/17 09:35:36;;;;;;;12.73;3.45;;;15.30;99.50;;;;;;4994304;28;20360;-40
2023/05/17 09:38:12;;;;;;;17.02;3.50;;;15.30;99.90;;;;;;5004929;28;20069;-41
2023/05/17 09:40:46;;;;;;;14.05;3.13;;;15.40;99.90;;;;;;5012175;28;20052;-36
2023/05/17 09:43:12;;;;;;;11.55;3.25;;;15.20;99.90;;;;;;5011438;28;20502;-41
2023/05/17 09:45:38;;;;;;;10.57;3.70;;;15.20;99.90;;;;;;5011496;28;20098;-36
2023/05/17 09:48:15;;;;;;;13.10;3.70;;;15.50;99.90;;;;;;5012126;28;20053;-39
2023/05/17 09:50:49;;;;;;;14.18;3.75;;;15.00;99.90;;;;;;5014704;28;20519;-36
2023/05/17 09:53:29;;;;;;;10.65;2.45;;;14.90;99.90;;;;;;5011071;28;20512;-43
2023/05/17 09:56:00;;;;;;;17.08;4.00;;;14.80;99.60;;;;;;5017182;28;20045;-44
2023/05/17 09:58:27;;;;;;;12.25;2.90;;;14.80;99.70;;;;;;5011957;28;20042;-38
2023/05/17 10:01:02;;;;;;;8.02;2.40;;;14.80;98.90;;;;;;5005807;28;20114;-41
2023/05/17 10:03:36;;;;;;;11.32;3.25;;;15.30;98.80;;;;;;5010357;28;20057;-38
2023/05/17 10:06:05;;;;;;;12.95;3.63;;;15.50;98.70;;;;;;5002000;28;20136;-41
2023/05/17 10:08:32;;;;;;;10.95;2.63;;;15.30;98.40;;;;;;5011809;28;20151;-37
2023/05/17 10:11:08;;;;;;;11.45;3.10;;;15.50;99.30;;;;;;5011961;28;20052;-39
2023/05/17 10:13:48;;;;;;;10.60;3.03;;;15.40;96.70;;;;;;4989060;28;20323;-37
2023/05/17 10:16:15;;;;;;;10.70;3.25;;;15.10;97.20;;;;;;5002639;28;20088;-40
2023/05/17 10:18:41;;;;;;;10.00;3.00;;;15.00;97.30;;;;;;5003368;28;20049;-37
2023/05/17 10:21:09;;;;;;;14.27;2.97;;;15.10;97.70;;;;;;5004666;28;20119;-41
2023/05/17 10:23:37;;;;;;;10.10;3.25;;;15.20;98.40;;;;;;4975221;28;20564;-38
2023/05/17 10:26:04;;;;;;;10.05;2.88;;;15.40;97.90;;;;;;5006935;28;20045;-37
2023/05/17 10:28:30;;;;;;;13.32;3.13;;;15.40;96.30;;;;;;5009190;28;20457;-39
2023/05/17 10:30:57;;;;;;;11.95;3.00;;;15.30;96.60;;;;;;5011739;28;20110;-38
2023/05/17 10:33:25;;;;;;;11.30;2.80;;;15.40;98.30;;;;;;5010757;28;20636;-38
2023/05/17 10:35:53;;;;;;;13.75;3.15;;;15.20;97.80;;;;;;4994281;28;20453;-36
2023/05/17 10:38:19;;;;;;;13.30;2.88;;;15.30;98.20;;;;;;5011341;28;20098;-36
2023/05/17 10:40:46;;;;;;;13.05;3.50;;;15.20;96.60;;;;;;5011798;28;20516;-39
2023/05/17 10:43:12;;;;;;;14.48;3.00;;;15.30;98.70;;;;;;5010359;28;20053;-40
2023/05/17 10:45:38;;;;;;;53.97;5.25;;;15.00;98.20;;;;;;5011204;28;20045;-41
2023/05/17 10:48:04;;;;;;;9.90;2.63;;;14.70;97.50;;;;;;5011018;28;20600;-37
2023/05/17 10:50:31;;;;;;;14.50;3.22;;;15.10;98.90;;;;;;5011607;28;20045;-39
2023/05/17 10:52:58;;;;;;;16.10;3.13;;;15.30;98.00;;;;;;5009686;28;20910;-36
2023/05/17 10:55:43;;;;;;;9.52;2.72;;;15.30;97.80;;;;;;5012258;28;20088;-41
2023/05/17 10:58:18;;;;;;;9.68;2.72;;;15.10;95.90;;;;;;4999154;28;20049;-37
2023/05/17 11:00:49;;;;;;;12.07;2.30;;;15.00;96.20;;;;;;5010491;28;20045;-42
2023/05/17 11:03:16;;;;;;;12.27;3.67;;;15.20;97.10;;;;;;5008703;28;20056;-38
2023/05/17 11:06:02;;;;;;;11.50;2.72;;;15.10;95.80;;;;;;5011038;28;20037;-39
2023/05/17 11:08:28;;;;;;;6.72;2.65;;;15.30;96.50;;;;;;4991760;28;20484;-39
2023/05/17 11:11:16;;;;;;;10.10;2.83;;;15.10;95.50;;;;;;5010532;28;20049;-44
2023/05/17 11:13:54;;;;;;;10.60;2.83;;;15.20;97.00;;;;;;5010396;28;20535;-37
2023/05/17 11:16:23;;;;;;;9.82;2.53;;;15.50;96.70;;;;;;5010105;28;20630;-42
2023/05/17 11:18:51;;;;;;;9.20;2.90;;;15.20;95.40;;;;;;4977810;28;20060;-38
2023/05/17 11:21:17;;;;;;;9.80;2.40;;;15.40;97.20;;;;;;5010246;28;20096;-35
2023/05/17 11:23:44;;;;;;;14.23;3.03;;;15.40;97.00;;;;;;4993309;28;20045;-39
2023/05/17 11:26:31;;;;;;;10.35;2.70;;;15.50;97.20;;;;;;5010658;28;20045;-37
2023/05/17 11:29:05;;;;;;;9.73;2.55;;;15.60;95.90;;;;;;5009749;28;20053;-42
2023/05/17 11:31:32;;;;;;;12.85;2.67;;;15.90;97.20;;;;;;5010080;28;20072;-37
2023/05/17 11:34:01;;;;;;;11.60;2.85;;;16.10;96.90;;;;;;5009308;28;20076;-42
2023/05/17 11:36:26;;;;;;;16.95;3.30;;;16.10;95.80;;;;;;5010330;28;20557;-38
2023/05/17 11:39:13;;;;;;;8.57;2.63;;;16.00;96.10;;;;;;5011534;28;20050;-42
2023/05/17 11:41:47;;;;;;;10.60;2.85;;;15.70;95.40;;;;;;5008855;28;20101;-40
2023/05/17 11:44:13;;;;;;;10.52;2.92;;;15.70;96.10;;;;;;5011315;28;20049;-38
2023/05/17 11:46:40;;;;;;;12.15;3.28;;;15.80;97.40;;;;;;5010863;28;20074;-40
2023/05/17 11:49:09;;;;;;;12.63;3.17;;;15.80;97.10;;;;;;5010781;28;20544;-41
2023/05/17 11:51:35;;;;;;;13.88;3.50;;;15.70;97.00;;;;;;5009785;28;20092;-36
2023/05/17 11:54:03;;;;;;;13.18;3.28;;;15.40;97.50;;;;;;4992212;28;20136;-41
2023/05/17 11:56:37;;;;;;;15.00;3.38;;;15.20;98.60;;;;;;4989552;28;20056;-39
2023/05/17 11:59:03;;;;;;;10.90;3.50;;;15.30;98.60;;;;;;5010977;28;20049;-39
2023/05/17 12:01:40;;;;;;;13.95;3.22;;;15.30;99.90;;;;;;5009876;28;20499;-38
2023/05/17 12:04:06;;;;;;;13.38;3.55;;;15.10;99.00;;;;;;5009807;28;20528;-39
2023/05/17 12:06:34;;;;;;;12.93;3.05;;;15.50;99.90;;;;;;5011124;28;20049;-41
2023/05/17 12:09:00;;;;;;;14.02;4.03;;;15.90;99.90;;;;;;5011102;28;20077;-41
2023/05/17 12:11:26;;;;;;;10.57;2.78;;;16.30;99.80;;;;;;5009450;28;20105;-44
2023/05/17 12:13:52;;;;;;;19.42;3.38;;;16.10;98.80;;;;;;5010456;28;20050;-42
2023/05/17 12:16:21;;;;;;;12.00;3.63;;;16.10;98.10;;;;;;5005900;28;20479;-39
2023/05/17 12:18:48;;;;;;;13.50;3.22;;;15.80;98.20;;;;;;4965951;28;20110;-39
2023/05/17 12:21:16;;;;;;;17.95;3.90;;;15.50;98.40;;;;;;5004311;28;20542;-43
2023/05/17 12:23:47;;;;;;;13.55;3.05;;;15.30;99.00;;;;;;4986041;28;20053;-40
2023/05/17 12:26:18;;;;;;;11.15;3.15;;;15.30;99.50;;;;;;5004601;28;20094;-39
2023/05/17 12:28:52;;;;;;;15.00;3.90;;;14.80;98.80;;;;;;5004940;28;20034;-42
2023/05/17 12:31:40;;;;;;;11.60;3.10;;;14.80;99.70;;;;;;5002466;28;20583;-39
2023/05/17 12:34:08;;;;;;;12.13;3.70;;;15.10;99.90;;;;;;5004917;28;20176;-39
2023/05/17 12:36:36;;;;;;;12.70;2.80;;;15.30;99.30;;;;;;5002281;28;20038;-39
2023/05/17 12:39:05;;;;;;;14.18;3.75;;;15.30;99.50;;;;;;4999325;28;20561;-39
2023/05/17 12:41:31;;;;;;;20.48;3.50;;;15.30;99.90;;;;;;5004975;28;20037;-38
2023/05/17 12:43:56;;;;;;;13.45;2.90;;;15.10;99.60;;;;;;5002752;28;20053;-44
2023/05/17 12:46:23;;;;;;;15.73;3.33;;;15.10;99.50;;;;;;4974381;28;20138;-39